sensor_id;sensor_type;location;lat;lon;timestamp;temperature;humidity
11840;DHT22;5979;50.800;4.904;2023-06-26T00:00:27;23.10;99.90
11840;DHT22;5979;50.800;4.904;2023-06-26T00:02:52;23.00;99.90
11840;DHT22;5979;50.800;4.904;2023-06-26T00:05:18;23.00;99.90
11840;DHT22;5979;50.800;4.904;2023-06-26T00:07:44;23.10;99.90
11840;DHT22;5979;50.800;4.904;2023-06-26T00:10:10;23.10;99.90
11840;DHT22;5979;50.800;4.904;2023-06-26T00:12:35;23.10;99.90
11840;DHT22;5979;50.800;4.904;2023-06-26T00:15:01;23.10;99.90
11840;DHT22;5979;50.800;4.904;2023-06-26T00:17:27;23.00;99.90
11840;DHT22;5979;50.800;4.904;2023-06-26T00:19:52;23.00;99.90
11840;DHT22;5979;50.800;4.904;2023-06-26T00:22:21;23.00;99.90
11840;DHT22;5979;50.800;4.904;2023-06-26T00:24:47;23.00;99.90
11840;DHT22;5979;50.800;4.904;2023-06-26T00:27:12;22.90;99.90
11840;DHT22;5979;50.800;4.904;2023-06-26T00:29:38;22.80;99.90
11840;DHT22;5979;50.800;4.904;2023-06-26T00:32:05;22.80;99.90
11840;DHT22;5979;50.800;4.904;2023-06-26T00:34:31;22.80;99.90
11840;DHT22;5979;50.800;4.904;2023-06-26T00:36:56;22.80;99.90
11840;DHT22;5979;50.800;4.904;2023-06-26T00:39:22;22.80;99.90
11840;DHT22;5979;50.800;4.904;2023-06-26T00:41:51;22.80;99.90
11840;DHT22;5979;50.800;4.904;2023-06-26T00:44:19;22.70;99.90
11840;DHT22;5979;50.800;4.904;2023-06-26T00:46:45;22.70;99.90
11840;DHT22;5979;50.800;4.904;2023-06-26T00:49:11;22.70;99.90
11840;DHT22;5979;50.800;4.904;2023-06-26T00:51:36;22.70;99.90
11840;DHT22;5979;50.800;4.904;2023-06-26T00:54:02;22.70;99.90
11840;DHT22;5979;50.800;4.904;2023-06-26T00:56:28;22.70;99.90
11840;DHT22;5979;50.800;4.904;2023-06-26T00:58:54;22.60;99.90
11840;DHT22;5979;50.800;4.904;2023-06-26T01:01:19;22.50;99.90
11840;DHT22;5979;50.800;4.904;2023-06-26T01:03:48;22.50;99.90
11840;DHT22;5979;50.800;4.904;2023-06-26T01:06:20;22.40;99.90
11840;DHT22;5979;50.800;4.904;2023-06-26T01:08:46;22.30;99.90
11840;DHT22;5979;50.800;4.904;2023-06-26T01:11:13;22.30;99.90
11840;DHT22;5979;50.800;4.904;2023-06-26T01:13:40;22.30;99.90
11840;DHT22;5979;50.800;4.904;2023-06-26T01:16:07;22.20;99.90
11840;DHT22;5979;50.800;4.904;2023-06-26T01:18:35;22.20;99.90
11840;DHT22;5979;50.800;4.904;2023-06-26T01:21:03;22.20;99.90
11840;DHT22;5979;50.800;4.904;2023-06-26T01:23:46;22.10;99.90
11840;DHT22;5979;50.800;4.904;2023-06-26T01:26:20;22.10;99.90
11840;DHT22;5979;50.800;4.904;2023-06-26T01:28:47;22.10;99.90
11840;DHT22;5979;50.800;4.904;2023-06-26T01:31:15;22.00;99.90
11840;DHT22;5979;50.800;4.904;2023-06-26T01:33:44;21.90;99.90
11840;DHT22;5979;50.800;4.904;2023-06-26T01:36:10;21.90;99.90
11840;DHT22;5979;50.800;4.904;2023-06-26T01:38:36;21.80;99.90
11840;DHT22;5979;50.800;4.904;2023-06-26T01:41:03;21.70;99.90
11840;DHT22;5979;50.800;4.904;2023-06-26T01:44:01;21.70;99.90
11840;DHT22;5979;50.800;4.904;2023-06-26T01:52:19;21.50;99.90
11840;DHT22;5979;50.800;4.904;2023-06-26T01:57:42;21.50;99.90
11840;DHT22;5979;50.800;4.904;2023-06-26T02:00:10;21.40;99.90
11840;DHT22;5979;50.800;4.904;2023-06-26T02:02:36;21.40;99.90
11840;DHT22;5979;50.800;4.904;2023-06-26T02:05:02;21.40;99.90
11840;DHT22;5979;50.800;4.904;2023-06-26T02:07:28;21.30;99.90
11840;DHT22;5979;50.800;4.904;2023-06-26T02:09:54;21.30;99.90
11840;DHT22;5979;50.800;4.904;2023-06-26T02:12:20;21.20;99.90
11840;DHT22;5979;50.800;4.904;2023-06-26T02:14:45;21.20;99.90
11840;DHT22;5979;50.800;4.904;2023-06-26T02:17:11;21.20;99.90
11840;DHT22;5979;50.800;4.904;2023-06-26T02:19:36;21.20;99.90
11840;DHT22;5979;50.800;4.904;2023-06-26T02:22:05;21.10;99.90
11840;DHT22;5979;50.800;4.904;2023-06-26T02:24:30;21.10;99.90
11840;DHT22;5979;50.800;4.904;2023-06-26T02:26:56;21.10;99.90
11840;DHT22;5979;50.800;4.904;2023-06-26T02:29:22;21.00;99.90
11840;DHT22;5979;50.800;4.904;2023-06-26T02:31:48;21.00;99.90
11840;DHT22;5979;50.800;4.904;2023-06-26T02:34:14;21.00;99.90
11840;DHT22;5979;50.800;4.904;2023-06-26T02:36:40;21.00;99.90
11840;DHT22;5979;50.800;4.904;2023-06-26T02:39:05;21.00;99.90
11840;DHT22;5979;50.800;4.904;2023-06-26T02:41:31;21.00;99.90
11840;DHT22;5979;50.800;4.904;2023-06-26T02:43:57;20.90;99.90
11840;DHT22;5979;50.800;4.904;2023-06-26T02:46:22;21.00;99.90
11840;DHT22;5979;50.800;4.904;2023-06-26T02:48:48;20.90;99.90
11840;DHT22;5979;50.800;4.904;2023-06-26T02:51:17;20.90;99.90
11840;DHT22;5979;50.800;4.904;2023-06-26T02:53:42;20.90;99.90
11840;DHT22;5979;50.800;4.904;2023-06-26T02:56:08;20.80;99.90
11840;DHT22;5979;50.800;4.904;2023-06-26T02:58:34;20.70;99.90
11840;DHT22;5979;50.800;4.904;2023-06-26T03:00:59;20.70;99.90
11840;DHT22;5979;50.800;4.904;2023-06-26T03:03:25;20.70;99.90
11840;DHT22;5979;50.800;4.904;2023-06-26T03:05:51;20.60;99.90
11840;DHT22;5979;50.800;4.904;2023-06-26T03:08:20;20.60;99.90
11840;DHT22;5979;50.800;4.904;2023-06-26T03:10:45;20.50;99.90
11840;DHT22;5979;50.800;4.904;2023-06-26T03:13:11;20.50;99.90
11840;DHT22;5979;50.800;4.904;2023-06-26T03:15:37;20.50;99.90
11840;DHT22;5979;50.800;4.904;2023-06-26T03:18:02;20.50;99.90
11840;DHT22;5979;50.800;4.904;2023-06-26T03:20:28;20.40;99.90
11840;DHT22;5979;50.800;4.904;2023-06-26T03:22:54;20.40;99.90
11840;DHT22;5979;50.800;4.904;2023-06-26T03:25:19;20.30;99.90
11840;DHT22;5979;50.800;4.904;2023-06-26T03:27:45;20.40;99.90
11840;DHT22;5979;50.800;4.904;2023-06-26T03:30:11;20.40;99.90
11840;DHT22;5979;50.800;4.904;2023-06-26T03:32:37;20.30;99.90
11840;DHT22;5979;50.800;4.904;2023-06-26T03:35:02;20.30;99.90
11840;DHT22;5979;50.800;4.904;2023-06-26T03:37:28;20.30;99.90
11840;DHT22;5979;50.800;4.904;2023-06-26T03:39:54;20.30;99.90
11840;DHT22;5979;50.800;4.904;2023-06-26T03:42:20;20.30;99.90
11840;DHT22;5979;50.800;4.904;2023-06-26T03:44:45;20.30;99.90
11840;DHT22;5979;50.800;4.904;2023-06-26T03:47:11;20.30;99.90
11840;DHT22;5979;50.800;4.904;2023-06-26T03:49:36;20.30;99.90
11840;DHT22;5979;50.800;4.904;2023-06-26T03:52:02;20.30;99.90
11840;DHT22;5979;50.800;4.904;2023-06-26T03:54:28;20.30;99.90
11840;DHT22;5979;50.800;4.904;2023-06-26T03:56:56;20.30;99.90
11840;DHT22;5979;50.800;4.904;2023-06-26T03:59:22;20.30;99.90
11840;DHT22;5979;50.800;4.904;2023-06-26T04:01:48;20.30;99.90
11840;DHT22;5979;50.800;4.904;2023-06-26T04:04:13;20.40;99.90
11840;DHT22;5979;50.800;4.904;2023-06-26T04:06:39;20.40;99.90
11840;DHT22;5979;50.800;4.904;2023-06-26T04:09:05;20.40;99.90
11840;DHT22;5979;50.800;4.904;2023-06-26T04:11:30;20.40;99.90
11840;DHT22;5979;50.800;4.904;2023-06-26T04:13:59;20.40;99.90
11840;DHT22;5979;50.800;4.904;2023-06-26T04:16:25;20.40;99.90
11840;DHT22;5979;50.800;4.904;2023-06-26T04:18:51;20.40;99.90
11840;DHT22;5979;50.800;4.904;2023-06-26T04:21:17;20.40;99.90
11840;DHT22;5979;50.800;4.904;2023-06-26T04:23:43;20.40;99.90
11840;DHT22;5979;50.800;4.904;2023-06-26T04:26:09;20.40;99.90
11840;DHT22;5979;50.800;4.904;2023-06-26T04:28:35;20.50;99.90
11840;DHT22;5979;50.800;4.904;2023-06-26T04:31:01;20.80;99.90
11840;DHT22;5979;50.800;4.904;2023-06-26T04:33:29;21.20;99.90
11840;DHT22;5979;50.800;4.904;2023-06-26T04:35:55;21.60;99.90
11840;DHT22;5979;50.800;4.904;2023-06-26T04:38:20;22.10;99.90
11840;DHT22;5979;50.800;4.904;2023-06-26T04:40:47;22.40;99.90
11840;DHT22;5979;50.800;4.904;2023-06-26T04:43:13;22.60;99.90
11840;DHT22;5979;50.800;4.904;2023-06-26T04:45:38;22.80;99.90
11840;DHT22;5979;50.800;4.904;2023-06-26T04:48:04;22.90;99.90
11840;DHT22;5979;50.800;4.904;2023-06-26T04:50:31;23.00;99.90
11840;DHT22;5979;50.800;4.904;2023-06-26T04:52:57;23.20;99.90
11840;DHT22;5979;50.800;4.904;2023-06-26T04:55:24;23.40;99.90
11840;DHT22;5979;50.800;4.904;2023-06-26T04:57:50;23.60;99.90
11840;DHT22;5979;50.800;4.904;2023-06-26T05:00:16;23.90;99.90
11840;DHT22;5979;50.800;4.904;2023-06-26T05:02:42;24.20;99.90
11840;DHT22;5979;50.800;4.904;2023-06-26T05:05:08;24.40;99.90
11840;DHT22;5979;50.800;4.904;2023-06-26T05:07:34;24.50;99.90
11840;DHT22;5979;50.800;4.904;2023-06-26T05:09:59;24.80;99.90
11840;DHT22;5979;50.800;4.904;2023-06-26T05:12:25;24.80;99.90
11840;DHT22;5979;50.800;4.904;2023-06-26T05:14:51;24.80;99.90
11840;DHT22;5979;50.800;4.904;2023-06-26T05:17:16;25.00;99.90
11840;DHT22;5979;50.800;4.904;2023-06-26T05:19:42;25.00;99.90
11840;DHT22;5979;50.800;4.904;2023-06-26T05:22:08;25.00;99.90
11840;DHT22;5979;50.800;4.904;2023-06-26T05:24:37;25.00;99.90
11840;DHT22;5979;50.800;4.904;2023-06-26T05:27:04;25.10;99.90
11840;DHT22;5979;50.800;4.904;2023-06-26T05:29:33;25.00;99.90
11840;DHT22;5979;50.800;4.904;2023-06-26T05:31:59;25.00;99.90
11840;DHT22;5979;50.800;4.904;2023-06-26T05:34:26;25.30;99.90
11840;DHT22;5979;50.800;4.904;2023-06-26T05:36:58;25.60;99.90
11840;DHT22;5979;50.800;4.904;2023-06-26T05:39:24;25.80;99.90
11840;DHT22;5979;50.800;4.904;2023-06-26T05:41:50;25.80;99.90
11840;DHT22;5979;50.800;4.904;2023-06-26T05:44:16;26.00;99.90
11840;DHT22;5979;50.800;4.904;2023-06-26T05:46:42;26.20;99.90
11840;DHT22;5979;50.800;4.904;2023-06-26T05:49:08;26.30;99.90
11840;DHT22;5979;50.800;4.904;2023-06-26T05:51:34;26.30;99.90
11840;DHT22;5979;50.800;4.904;2023-06-26T05:54:00;26.50;99.90
11840;DHT22;5979;50.800;4.904;2023-06-26T05:56:26;26.40;99.90
11840;DHT22;5979;50.800;4.904;2023-06-26T05:58:52;26.40;99.90
11840;DHT22;5979;50.800;4.904;2023-06-26T06:01:18;26.40;99.90
11840;DHT22;5979;50.800;4.904;2023-06-26T06:03:45;26.40;99.90
11840;DHT22;5979;50.800;4.904;2023-06-26T06:06:11;26.30;99.90
11840;DHT22;5979;50.800;4.904;2023-06-26T06:08:37;26.40;99.90
11840;DHT22;5979;50.800;4.904;2023-06-26T06:11:03;26.40;99.90
11840;DHT22;5979;50.800;4.904;2023-06-26T06:13:28;26.60;99.90
11840;DHT22;5979;50.800;4.904;2023-06-26T06:15:54;26.70;99.90
11840;DHT22;5979;50.800;4.904;2023-06-26T06:18:20;26.70;99.90
11840;DHT22;5979;50.800;4.904;2023-06-26T06:20:47;26.90;99.90
11840;DHT22;5979;50.800;4.904;2023-06-26T06:23:12;27.10;99.90
11840;DHT22;5979;50.800;4.904;2023-06-26T06:25:38;26.90;99.90
11840;DHT22;5979;50.800;4.904;2023-06-26T06:28:05;27.20;99.90
11840;DHT22;5979;50.800;4.904;2023-06-26T06:30:30;27.30;99.90
11840;DHT22;5979;50.800;4.904;2023-06-26T06:32:57;27.50;99.90
11840;DHT22;5979;50.800;4.904;2023-06-26T06:35:22;27.70;99.90
11840;DHT22;5979;50.800;4.904;2023-06-26T06:37:49;27.50;99.90
11840;DHT22;5979;50.800;4.904;2023-06-26T06:40:15;27.70;99.90
11840;DHT22;5979;50.800;4.904;2023-06-26T06:42:41;27.50;99.90
11840;DHT22;5979;50.800;4.904;2023-06-26T06:45:07;27.40;99.90
11840;DHT22;5979;50.800;4.904;2023-06-26T06:47:33;27.30;99.90
11840;DHT22;5979;50.800;4.904;2023-06-26T06:50:00;27.20;99.90
11840;DHT22;5979;50.800;4.904;2023-06-26T06:52:39;27.10;99.90
11840;DHT22;5979;50.800;4.904;2023-06-26T06:55:06;27.00;99.90
11840;DHT22;5979;50.800;4.904;2023-06-26T06:57:37;26.80;99.90
11840;DHT22;5979;50.800;4.904;2023-06-26T07:00:10;26.70;99.90
11840;DHT22;5979;50.800;4.904;2023-06-26T07:02:37;26.60;99.90
11840;DHT22;5979;50.800;4.904;2023-06-26T07:05:04;26.60;99.90
11840;DHT22;5979;50.800;4.904;2023-06-26T07:07:31;26.70;99.90
11840;DHT22;5979;50.800;4.904;2023-06-26T07:10:02;26.60;99.90
11840;DHT22;5979;50.800;4.904;2023-06-26T07:12:28;26.50;99.90
11840;DHT22;5979;50.800;4.904;2023-06-26T07:14:55;26.40;99.90
11840;DHT22;5979;50.800;4.904;2023-06-26T07:17:21;26.30;99.90
11840;DHT22;5979;50.800;4.904;2023-06-26T07:19:47;26.40;99.90
11840;DHT22;5979;50.800;4.904;2023-06-26T07:22:13;26.40;99.90
11840;DHT22;5979;50.800;4.904;2023-06-26T07:24:39;26.40;99.90
11840;DHT22;5979;50.800;4.904;2023-06-26T07:27:05;26.40;99.90
11840;DHT22;5979;50.800;4.904;2023-06-26T07:29:31;26.40;99.90
11840;DHT22;5979;50.800;4.904;2023-06-26T07:31:56;26.50;99.90
11840;DHT22;5979;50.800;4.904;2023-06-26T07:34:22;26.60;99.90
11840;DHT22;5979;50.800;4.904;2023-06-26T07:36:48;26.40;99.90
11840;DHT22;5979;50.800;4.904;2023-06-26T07:39:13;26.10;99.90
11840;DHT22;5979;50.800;4.904;2023-06-26T07:41:39;26.10;99.90
11840;DHT22;5979;50.800;4.904;2023-06-26T07:44:04;26.20;99.90
11840;DHT22;5979;50.800;4.904;2023-06-26T07:46:30;26.00;99.90
11840;DHT22;5979;50.800;4.904;2023-06-26T07:48:56;26.00;99.90
11840;DHT22;5979;50.800;4.904;2023-06-26T07:51:21;25.90;99.90
11840;DHT22;5979;50.800;4.904;2023-06-26T07:53:47;25.90;99.90
11840;DHT22;5979;50.800;4.904;2023-06-26T07:56:13;25.90;99.90
11840;DHT22;5979;50.800;4.904;2023-06-26T07:58:38;26.00;99.90
11840;DHT22;5979;50.800;4.904;2023-06-26T08:01:04;26.10;99.90
11840;DHT22;5979;50.800;4.904;2023-06-26T08:03:30;26.40;99.90
11840;DHT22;5979;50.800;4.904;2023-06-26T08:05:55;26.50;99.90
11840;DHT22;5979;50.800;4.904;2023-06-26T08:08:21;26.60;99.90
11840;DHT22;5979;50.800;4.904;2023-06-26T08:10:47;26.70;99.90
11840;DHT22;5979;50.800;4.904;2023-06-26T08:13:12;26.50;99.90
11840;DHT22;5979;50.800;4.904;2023-06-26T08:15:38;26.40;99.90
11840;DHT22;5979;50.800;4.904;2023-06-26T08:18:04;26.50;99.90
11840;DHT22;5979;50.800;4.904;2023-06-26T08:20:30;26.50;99.90
11840;DHT22;5979;50.800;4.904;2023-06-26T08:22:56;26.50;99.90
11840;DHT22;5979;50.800;4.904;2023-06-26T08:25:21;26.60;99.90
11840;DHT22;5979;50.800;4.904;2023-06-26T08:27:47;26.60;99.90
11840;DHT22;5979;50.800;4.904;2023-06-26T08:30:13;26.70;99.90
11840;DHT22;5979;50.800;4.904;2023-06-26T08:32:39;26.70;99.90
11840;DHT22;5979;50.800;4.904;2023-06-26T08:35:06;26.80;99.90
11840;DHT22;5979;50.800;4.904;2023-06-26T08:37:32;26.90;99.90
11840;DHT22;5979;50.800;4.904;2023-06-26T08:40:01;26.80;99.90
11840;DHT22;5979;50.800;4.904;2023-06-26T08:42:27;26.80;99.90
11840;DHT22;5979;50.800;4.904;2023-06-26T08:44:52;26.90;99.90
11840;DHT22;5979;50.800;4.904;2023-06-26T08:47:19;26.80;99.90
11840;DHT22;5979;50.800;4.904;2023-06-26T08:49:53;26.70;99.90
11840;DHT22;5979;50.800;4.904;2023-06-26T08:52:28;26.90;99.90
11840;DHT22;5979;50.800;4.904;2023-06-26T08:54:58;26.60;99.90
11840;DHT22;5979;50.800;4.904;2023-06-26T08:57:26;26.50;99.90
11840;DHT22;5979;50.800;4.904;2023-06-26T08:59:52;26.50;99.90
11840;DHT22;5979;50.800;4.904;2023-06-26T09:02:18;26.60;99.90
11840;DHT22;5979;50.800;4.904;2023-06-26T09:04:47;26.60;99.90
11840;DHT22;5979;50.800;4.904;2023-06-26T09:07:13;26.60;99.90
11840;DHT22;5979;50.800;4.904;2023-06-26T09:09:39;26.80;99.90
11840;DHT22;5979;50.800;4.904;2023-06-26T09:12:05;27.00;99.90
11840;DHT22;5979;50.800;4.904;2023-06-26T09:14:31;27.00;99.90
11840;DHT22;5979;50.800;4.904;2023-06-26T09:16:57;26.70;99.90
11840;DHT22;5979;50.800;4.904;2023-06-26T09:19:23;26.80;99.90
11840;DHT22;5979;50.800;4.904;2023-06-26T09:21:50;26.90;99.90
11840;DHT22;5979;50.800;4.904;2023-06-26T09:24:17;26.70;99.90
11840;DHT22;5979;50.800;4.904;2023-06-26T09:26:42;26.70;99.90
11840;DHT22;5979;50.800;4.904;2023-06-26T09:29:09;26.70;99.90
11840;DHT22;5979;50.800;4.904;2023-06-26T09:31:37;26.90;99.90
11840;DHT22;5979;50.800;4.904;2023-06-26T09:34:03;27.10;99.90
11840;DHT22;5979;50.800;4.904;2023-06-26T09:36:30;27.30;99.90
11840;DHT22;5979;50.800;4.904;2023-06-26T09:39:03;27.50;99.90
11840;DHT22;5979;50.800;4.904;2023-06-26T09:41:30;27.70;99.90
11840;DHT22;5979;50.800;4.904;2023-06-26T09:44:00;27.80;99.90
11840;DHT22;5979;50.800;4.904;2023-06-26T09:46:28;27.90;99.90
11840;DHT22;5979;50.800;4.904;2023-06-26T09:49:02;28.00;99.90
11840;DHT22;5979;50.800;4.904;2023-06-26T09:51:30;27.90;99.90
11840;DHT22;5979;50.800;4.904;2023-06-26T09:53:56;27.80;99.90
11840;DHT22;5979;50.800;4.904;2023-06-26T09:56:22;27.80;99.90
11840;DHT22;5979;50.800;4.904;2023-06-26T09:58:49;27.90;99.90
11840;DHT22;5979;50.800;4.904;2023-06-26T10:01:15;27.90;99.90
11840;DHT22;5979;50.800;4.904;2023-06-26T10:03:40;28.20;99.90
11840;DHT22;5979;50.800;4.904;2023-06-26T10:06:07;28.40;99.90
11840;DHT22;5979;50.800;4.904;2023-06-26T10:08:34;28.50;99.90
11840;DHT22;5979;50.800;4.904;2023-06-26T10:11:01;28.50;99.90
11840;DHT22;5979;50.800;4.904;2023-06-26T10:13:38;28.50;99.90
11840;DHT22;5979;50.800;4.904;2023-06-26T10:16:06;28.40;99.90
11840;DHT22;5979;50.800;4.904;2023-06-26T10:18:33;28.10;99.90
11840;DHT22;5979;50.800;4.904;2023-06-26T10:21:01;28.00;99.90
11840;DHT22;5979;50.800;4.904;2023-06-26T10:23:30;27.90;99.90
11840;DHT22;5979;50.800;4.904;2023-06-26T10:25:58;27.80;99.90
11840;DHT22;5979;50.800;4.904;2023-06-26T10:28:27;28.10;99.90
11840;DHT22;5979;50.800;4.904;2023-06-26T10:30:55;28.20;99.90
11840;DHT22;5979;50.800;4.904;2023-06-26T10:33:21;28.00;99.90
11840;DHT22;5979;50.800;4.904;2023-06-26T10:35:47;27.70;99.90
11840;DHT22;5979;50.800;4.904;2023-06-26T10:38:13;27.80;99.90
11840;DHT22;5979;50.800;4.904;2023-06-26T10:40:46;27.70;99.90
11840;DHT22;5979;50.800;4.904;2023-06-26T10:43:15;27.80;99.90
11840;DHT22;5979;50.800;4.904;2023-06-26T10:45:46;27.80;99.90
11840;DHT22;5979;50.800;4.904;2023-06-26T10:48:15;27.70;99.90
11840;DHT22;5979;50.800;4.904;2023-06-26T10:50:41;27.70;99.90
11840;DHT22;5979;50.800;4.904;2023-06-26T10:58:40;27.40;99.90
11840;DHT22;5979;50.800;4.904;2023-06-26T11:01:18;27.50;99.90
11840;DHT22;5979;50.800;4.904;2023-06-26T11:03:46;27.50;99.90
11840;DHT22;5979;50.800;4.904;2023-06-26T11:06:14;27.60;99.90
11840;DHT22;5979;50.800;4.904;2023-06-26T11:08:47;27.50;99.90
11840;DHT22;5979;50.800;4.904;2023-06-26T11:11:13;27.10;99.90
11840;DHT22;5979;50.800;4.904;2023-06-26T11:13:40;26.90;99.90
11840;DHT22;5979;50.800;4.904;2023-06-26T11:16:06;26.70;99.90
11840;DHT22;5979;50.800;4.904;2023-06-26T11:18:32;26.50;99.90
11840;DHT22;5979;50.800;4.904;2023-06-26T11:21:24;26.50;99.90
11840;DHT22;5979;50.800;4.904;2023-06-26T11:23:50;26.60;99.90
11840;DHT22;5979;50.800;4.904;2023-06-26T11:26:20;26.80;99.90
11840;DHT22;5979;50.800;4.904;2023-06-26T11:28:55;26.60;99.90
11840;DHT22;5979;50.800;4.904;2023-06-26T11:33:51;26.40;99.90
11840;DHT22;5979;50.800;4.904;2023-06-26T11:36:18;26.30;99.90
11840;DHT22;5979;50.800;4.904;2023-06-26T11:38:43;26.30;99.90
11840;DHT22;5979;50.800;4.904;2023-06-26T11:41:09;26.40;99.90
11840;DHT22;5979;50.800;4.904;2023-06-26T11:43:35;26.50;99.90
11840;DHT22;5979;50.800;4.904;2023-06-26T11:46:00;26.50;99.90
11840;DHT22;5979;50.800;4.904;2023-06-26T11:48:26;26.60;99.90
11840;DHT22;5979;50.800;4.904;2023-06-26T11:50:52;26.70;99.90
11840;DHT22;5979;50.800;4.904;2023-06-26T11:53:17;26.60;99.90
11840;DHT22;5979;50.800;4.904;2023-06-26T11:55:43;26.40;99.90
11840;DHT22;5979;50.800;4.904;2023-06-26T11:58:09;26.20;99.90
11840;DHT22;5979;50.800;4.904;2023-06-26T12:00:34;26.00;99.90
11840;DHT22;5979;50.800;4.904;2023-06-26T12:03:01;26.00;99.90
11840;DHT22;5979;50.800;4.904;2023-06-26T12:05:28;26.20;99.90
11840;DHT22;5979;50.800;4.904;2023-06-26T12:07:56;26.30;99.90
11840;DHT22;5979;50.800;4.904;2023-06-26T12:10:22;26.30;99.90
11840;DHT22;5979;50.800;4.904;2023-06-26T12:12:47;26.30;99.90
11840;DHT22;5979;50.800;4.904;2023-06-26T12:15:15;26.30;99.90
11840;DHT22;5979;50.800;4.904;2023-06-26T12:17:41;26.40;99.90
11840;DHT22;5979;50.800;4.904;2023-06-26T12:20:21;26.20;99.90
11840;DHT22;5979;50.800;4.904;2023-06-26T12:22:48;26.40;99.90
11840;DHT22;5979;50.800;4.904;2023-06-26T12:25:15;26.40;99.90
11840;DHT22;5979;50.800;4.904;2023-06-26T12:27:41;26.70;99.90
11840;DHT22;5979;50.800;4.904;2023-06-26T12:30:06;26.90;99.90
11840;DHT22;5979;50.800;4.904;2023-06-26T12:32:34;26.90;99.90
11840;DHT22;5979;50.800;4.904;2023-06-26T12:35:00;27.10;99.90
11840;DHT22;5979;50.800;4.904;2023-06-26T12:37:26;27.30;99.90
11840;DHT22;5979;50.800;4.904;2023-06-26T12:39:54;27.30;99.90
11840;DHT22;5979;50.800;4.904;2023-06-26T12:42:30;26.90;99.90
11840;DHT22;5979;50.800;4.904;2023-06-26T12:44:58;26.80;99.90
11840;DHT22;5979;50.800;4.904;2023-06-26T12:47:26;26.70;99.90
11840;DHT22;5979;50.800;4.904;2023-06-26T12:49:53;26.80;99.90
11840;DHT22;5979;50.800;4.904;2023-06-26T12:52:20;26.90;99.90
11840;DHT22;5979;50.800;4.904;2023-06-26T12:54:46;27.10;99.90
11840;DHT22;5979;50.800;4.904;2023-06-26T12:57:13;27.10;99.90
11840;DHT22;5979;50.800;4.904;2023-06-26T12:59:42;27.20;99.90
11840;DHT22;5979;50.800;4.904;2023-06-26T13:02:08;27.30;99.90
11840;DHT22;5979;50.800;4.904;2023-06-26T13:04:34;27.50;99.90
11840;DHT22;5979;50.800;4.904;2023-06-26T13:07:01;27.60;99.90
11840;DHT22;5979;50.800;4.904;2023-06-26T13:09:31;27.70;99.90
11840;DHT22;5979;50.800;4.904;2023-06-26T13:11:58;27.80;99.90
11840;DHT22;5979;50.800;4.904;2023-06-26T13:14:24;27.70;99.90
11840;DHT22;5979;50.800;4.904;2023-06-26T13:16:50;27.70;99.90
11840;DHT22;5979;50.800;4.904;2023-06-26T13:19:16;27.70;99.90
11840;DHT22;5979;50.800;4.904;2023-06-26T13:21:41;27.70;99.90
11840;DHT22;5979;50.800;4.904;2023-06-26T13:24:07;27.60;99.90
11840;DHT22;5979;50.800;4.904;2023-06-26T13:26:33;27.30;99.90
11840;DHT22;5979;50.800;4.904;2023-06-26T13:28:59;26.90;99.90
11840;DHT22;5979;50.800;4.904;2023-06-26T13:31:24;26.80;99.90
11840;DHT22;5979;50.800;4.904;2023-06-26T13:33:50;26.70;99.90
11840;DHT22;5979;50.800;4.904;2023-06-26T13:36:18;26.60;99.90
11840;DHT22;5979;50.800;4.904;2023-06-26T13:38:44;26.60;99.90
11840;DHT22;5979;50.800;4.904;2023-06-26T13:41:10;26.40;99.90
11840;DHT22;5979;50.800;4.904;2023-06-26T13:43:36;26.30;99.90
11840;DHT22;5979;50.800;4.904;2023-06-26T13:46:02;26.20;99.90
11840;DHT22;5979;50.800;4.904;2023-06-26T13:48:28;26.30;99.90
11840;DHT22;5979;50.800;4.904;2023-06-26T13:50:54;26.40;99.90
11840;DHT22;5979;50.800;4.904;2023-06-26T13:53:20;26.60;99.90
11840;DHT22;5979;50.800;4.904;2023-06-26T13:55:46;26.80;99.90
11840;DHT22;5979;50.800;4.904;2023-06-26T13:58:12;27.00;99.90
11840;DHT22;5979;50.800;4.904;2023-06-26T14:00:39;27.00;99.90
11840;DHT22;5979;50.800;4.904;2023-06-26T14:03:05;27.10;99.90
11840;DHT22;5979;50.800;4.904;2023-06-26T14:05:35;27.10;99.90
11840;DHT22;5979;50.800;4.904;2023-06-26T14:08:06;27.10;99.90
11840;DHT22;5979;50.800;4.904;2023-06-26T14:10:32;27.10;99.90
11840;DHT22;5979;50.800;4.904;2023-06-26T14:13:02;27.20;99.90
11840;DHT22;5979;50.800;4.904;2023-06-26T14:15:28;27.20;99.90
11840;DHT22;5979;50.800;4.904;2023-06-26T14:17:54;27.20;99.90
11840;DHT22;5979;50.800;4.904;2023-06-26T14:20:21;27.00;99.90
11840;DHT22;5979;50.800;4.904;2023-06-26T14:22:48;26.90;99.90
11840;DHT22;5979;50.800;4.904;2023-06-26T14:25:14;26.90;99.90
11840;DHT22;5979;50.800;4.904;2023-06-26T14:27:40;26.80;99.90
11840;DHT22;5979;50.800;4.904;2023-06-26T14:30:06;26.60;99.90
11840;DHT22;5979;50.800;4.904;2023-06-26T14:32:35;26.60;99.90
11840;DHT22;5979;50.800;4.904;2023-06-26T14:35:02;26.60;99.90
11840;DHT22;5979;50.800;4.904;2023-06-26T14:37:29;26.70;99.90
11840;DHT22;5979;50.800;4.904;2023-06-26T14:39:55;26.60;99.90
11840;DHT22;5979;50.800;4.904;2023-06-26T14:42:21;26.70;99.90
11840;DHT22;5979;50.800;4.904;2023-06-26T14:44:47;26.70;99.90
11840;DHT22;5979;50.800;4.904;2023-06-26T14:47:15;26.70;99.90
11840;DHT22;5979;50.800;4.904;2023-06-26T14:49:41;26.80;99.90
11840;DHT22;5979;50.800;4.904;2023-06-26T14:52:07;26.80;99.90
11840;DHT22;5979;50.800;4.904;2023-06-26T14:54:32;26.60;99.90
11840;DHT22;5979;50.800;4.904;2023-06-26T14:56:58;26.50;99.90
11840;DHT22;5979;50.800;4.904;2023-06-26T14:59:25;26.40;99.90
11840;DHT22;5979;50.800;4.904;2023-06-26T15:01:51;26.40;99.90
11840;DHT22;5979;50.800;4.904;2023-06-26T15:04:16;26.30;99.90
11840;DHT22;5979;50.800;4.904;2023-06-26T15:06:42;26.10;99.90
11840;DHT22;5979;50.800;4.904;2023-06-26T15:09:08;26.10;99.90
11840;DHT22;5979;50.800;4.904;2023-06-26T15:11:34;26.10;99.90
11840;DHT22;5979;50.800;4.904;2023-06-26T15:14:01;26.10;99.90
11840;DHT22;5979;50.800;4.904;2023-06-26T15:16:27;26.10;99.90
11840;DHT22;5979;50.800;4.904;2023-06-26T15:18:52;26.10;99.90
11840;DHT22;5979;50.800;4.904;2023-06-26T15:21:18;26.10;99.90
11840;DHT22;5979;50.800;4.904;2023-06-26T15:23:45;25.90;99.90
11840;DHT22;5979;50.800;4.904;2023-06-26T15:26:11;25.80;99.90
11840;DHT22;5979;50.800;4.904;2023-06-26T15:28:37;25.80;99.90
11840;DHT22;5979;50.800;4.904;2023-06-26T15:31:02;25.70;99.90
11840;DHT22;5979;50.800;4.904;2023-06-26T15:33:28;25.70;99.90
11840;DHT22;5979;50.800;4.904;2023-06-26T15:35:54;25.60;99.90
11840;DHT22;5979;50.800;4.904;2023-06-26T15:38:19;25.60;99.90
11840;DHT22;5979;50.800;4.904;2023-06-26T15:40:45;25.50;99.90
11840;DHT22;5979;50.800;4.904;2023-06-26T15:43:11;25.60;99.90
11840;DHT22;5979;50.800;4.904;2023-06-26T15:45:36;25.60;99.90
11840;DHT22;5979;50.800;4.904;2023-06-26T15:48:02;25.50;99.90
11840;DHT22;5979;50.800;4.904;2023-06-26T15:50:28;25.40;99.90
11840;DHT22;5979;50.800;4.904;2023-06-26T15:52:54;25.30;99.90
11840;DHT22;5979;50.800;4.904;2023-06-26T15:55:20;25.20;99.90
11840;DHT22;5979;50.800;4.904;2023-06-26T15:57:45;25.20;99.90